createdAt,value
2023-04-22T00:00:06.129Z,52.97
2023-04-22T00:03:09.272Z,52.48
2023-04-22T00:06:13.746Z,52.91
2023-04-22T00:09:16.357Z,51.43
2023-04-22T00:12:18.941Z,53.61
2023-04-22T00:15:22.058Z,54.01
2023-04-22T00:18:24.712Z,53.11
2023-04-22T00:21:29.025Z,51.81
2023-04-22T00:24:31.665Z,53.33
2023-04-22T00:27:34.309Z,53.50
2023-04-22T00:30:37.270Z,52.57
2023-04-22T00:33:39.850Z,54.13
2023-04-22T00:36:43.780Z,51.87
2023-04-22T00:39:46.379Z,52.96
2023-04-22T00:42:50.924Z,53.47
2023-04-22T00:45:54.169Z,53.37
2023-04-22T00:48:58.283Z,52.69
2023-04-22T00:52:02.204Z,52.76
2023-04-22T00:55:05.571Z,53.24
2023-04-22T00:58:09.070Z,54.32
2023-04-22T01:01:12.422Z,53.20
2023-04-22T01:04:16.196Z,52.21
2023-04-22T01:07:20.411Z,53.69
2023-04-22T01:10:23.148Z,52.56
2023-04-22T01:13:25.737Z,52.95
2023-04-22T01:16:29.389Z,52.57
2023-04-22T01:19:32.901Z,53.12
2023-04-22T01:22:41.522Z,53.60
2023-04-22T01:25:45.594Z,52.59
2023-04-22T01:28:48.213Z,53.41
2023-04-22T01:31:51.448Z,53.59
2023-04-22T01:34:54.067Z,53.31
2023-04-22T01:37:57.506Z,54.59
2023-04-22T01:41:02.456Z,54.71
2023-04-22T01:44:05.480Z,54.02
2023-04-22T01:47:08.152Z,54.18
2023-04-22T01:50:11.372Z,54.88
2023-04-22T01:53:14.038Z,54.36
2023-04-22T01:56:18.231Z,54.68
2023-04-22T01:59:21.115Z,54.06
2023-04-22T02:02:23.850Z,55.01
2023-04-22T02:05:28.060Z,55.00
2023-04-22T02:08:30.839Z,55.82
2023-04-22T02:11:35.431Z,55.88
2023-04-22T02:14:38.074Z,55.12
2023-04-22T02:17:43.413Z,55.41
2023-04-22T02:20:46.207Z,55.32
2023-04-22T02:23:48.819Z,56.02
2023-04-22T02:26:52.759Z,55.42
2023-04-22T02:29:55.361Z,55.39
2023-04-22T02:32:57.999Z,55.77
2023-04-22T02:36:00.615Z,56.20
2023-04-22T02:39:05.941Z,56.50
2023-04-22T02:42:09.882Z,56.58
2023-04-22T02:45:12.683Z,57.33
2023-04-22T02:48:15.355Z,59.04
2023-04-22T02:51:17.964Z,58.47
2023-04-22T02:54:20.556Z,58.12
2023-04-22T02:57:24.534Z,58.02
2023-04-22T03:00:27.484Z,58.86
2023-04-22T03:03:30.234Z,57.98
2023-04-22T03:06:32.950Z,58.65
2023-04-22T03:09:35.570Z,58.49
2023-04-22T03:12:39.746Z,58.99
2023-04-22T03:15:42.594Z,58.25
2023-04-22T03:18:45.198Z,59.47
2023-04-22T03:21:47.776Z,59.21
2023-04-22T03:24:50.523Z,58.85
2023-04-22T03:27:54.524Z,58.63
2023-04-22T03:30:57.100Z,58.82
2023-04-22T03:33:59.688Z,58.39
2023-04-22T03:37:02.310Z,59.19
2023-04-22T03:40:05.859Z,59.58
2023-04-22T03:43:10.072Z,59.01
2023-04-22T03:46:12.831Z,59.62
2023-04-22T03:49:15.491Z,58.97
2023-04-22T03:52:18.072Z,60.44
2023-04-22T03:55:20.703Z,59.37
2023-04-22T03:58:24.693Z,60.93
2023-04-22T04:01:27.527Z,60.66
2023-04-22T04:04:30.595Z,60.70
2023-04-22T04:07:33.396Z,61.69
2023-04-22T04:10:37.544Z,61.06
2023-04-22T04:13:41.546Z,61.99
2023-04-22T04:16:44.336Z,61.26
2023-04-22T04:19:46.888Z,61.91
2023-04-22T04:22:49.478Z,61.78
2023-04-22T04:25:52.373Z,61.72
2023-04-22T04:28:56.631Z,61.10
2023-04-22T04:31:59.240Z,61.98
2023-04-22T04:35:02.161Z,62.84
2023-04-22T04:38:05.419Z,62.17
2023-04-22T04:41:09.575Z,62.13
2023-04-22T04:44:13.519Z,61.91
2023-04-22T04:47:16.102Z,62.01
2023-04-22T04:50:18.701Z,63.33
2023-04-22T04:53:22.710Z,62.98
2023-04-22T04:56:25.335Z,62.59
2023-04-22T04:59:29.272Z,63.65
2023-04-22T05:02:32.065Z,62.74
2023-04-22T05:05:34.984Z,61.84
2023-04-22T05:08:37.614Z,63.29
2023-04-22T05:11:40.223Z,63.23
2023-04-22T05:14:44.599Z,61.28
2023-04-22T05:17:47.279Z,60.94
2023-04-22T05:20:50.098Z,62.84
2023-04-22T05:23:52.697Z,62.07
2023-04-22T05:26:55.390Z,62.53
2023-04-22T05:29:59.326Z,62.51
2023-04-22T05:33:01.976Z,61.29
2023-04-22T05:36:04.999Z,61.06
2023-04-22T05:39:07.732Z,61.76
2023-04-22T05:42:11.545Z,62.09
2023-04-22T05:45:15.686Z,61.14
2023-04-22T05:48:18.302Z,60.18
2023-04-22T05:51:20.880Z,60.81
2023-04-22T05:54:23.529Z,61.85
2023-04-22T05:57:26.516Z,60.79
2023-04-22T06:00:30.588Z,61.64
2023-04-22T06:03:33.384Z,61.58
2023-04-22T06:06:36.318Z,60.80
2023-04-22T06:09:39.067Z,61.67
2023-04-22T06:12:41.881Z,61.84
2023-04-22T06:15:45.938Z,61.71
2023-04-22T06:18:48.600Z,63.04
2023-04-22T06:21:51.332Z,62.16
2023-04-22T06:24:53.925Z,60.15
2023-04-22T06:27:56.547Z,61.67
2023-04-22T06:31:00.535Z,61.84
2023-04-22T06:34:03.175Z,60.22
2023-04-22T06:37:06.174Z,60.25
2023-04-22T06:40:10.201Z,61.67
2023-04-22T06:43:12.782Z,59.73
2023-04-22T06:46:17.067Z,60.36
2023-04-22T06:49:19.705Z,60.04
2023-04-22T06:52:24.122Z,59.89
2023-04-22T06:55:26.948Z,57.34
2023-04-22T06:58:29.545Z,58.49
2023-04-22T07:01:33.514Z,57.44
2023-04-22T07:04:36.507Z,58.47
2023-04-22T07:07:39.307Z,58.56
2023-04-22T07:10:41.900Z,57.22
2023-04-22T07:13:44.569Z,56.66
2023-04-22T07:16:48.989Z,56.56
2023-04-22T07:19:51.698Z,57.42
2023-04-22T07:22:54.285Z,56.23
2023-04-22T07:25:56.894Z,57.00
2023-04-22T07:28:59.521Z,57.52
2023-04-22T07:32:03.544Z,55.21
2023-04-22T07:35:07.079Z,54.11
2023-04-22T07:38:10.597Z,54.10
2023-04-22T07:41:14.210Z,56.13
2023-04-22T07:44:21.348Z,54.28
2023-04-22T07:47:25.304Z,55.20
2023-04-22T07:50:27.952Z,54.87
2023-04-22T07:53:30.561Z,56.84
2023-04-22T07:56:33.162Z,52.19
2023-04-22T07:59:35.738Z,50.75
2023-04-22T08:02:39.810Z,54.18
2023-04-22T08:05:42.559Z,49.43
2023-04-22T08:08:45.178Z,52.62
2023-04-22T08:11:47.842Z,51.38
2023-04-22T08:14:50.574Z,50.13
2023-04-22T08:17:54.622Z,49.71
2023-04-22T08:20:57.579Z,53.15
2023-04-22T08:24:00.237Z,50.85
2023-04-22T08:27:02.846Z,50.84
2023-04-22T08:30:07.018Z,53.22
2023-04-22T08:33:11.818Z,50.83
2023-04-22T08:36:14.527Z,49.36
2023-04-22T08:39:17.641Z,50.72
2023-04-22T08:42:20.973Z,52.24
2023-04-22T08:45:24.028Z,50.78
2023-04-22T08:48:28.126Z,51.25
2023-04-22T08:51:33.433Z,51.27
2023-04-22T08:54:37.318Z,48.42
2023-04-22T08:57:40.729Z,52.52
2023-04-22T09:00:44.882Z,51.74
2023-04-22T09:03:50.833Z,50.19
2023-04-22T09:06:53.488Z,48.10
2023-04-22T09:09:56.439Z,51.45
2023-04-22T09:12:59.863Z,47.71
2023-04-22T09:16:02.540Z,47.73
2023-04-22T09:19:06.527Z,46.96
2023-04-22T09:22:14.061Z,45.80
2023-04-22T09:25:18.234Z,45.55
2023-04-22T09:28:21.043Z,44.75
2023-04-22T09:31:23.846Z,43.97
2023-04-22T09:34:28.473Z,43.77
2023-04-22T09:37:39.310Z,45.46
2023-04-22T09:40:51.639Z,45.57
2023-04-22T09:43:55.996Z,42.97
2023-04-22T09:47:00.317Z,46.32
2023-04-22T09:50:06.874Z,44.93
2023-04-22T09:53:10.764Z,40.93
2023-04-22T09:56:13.419Z,43.38
2023-04-22T09:59:20.900Z,39.61
2023-04-22T10:02:30.539Z,40.00
2023-04-22T10:05:37.786Z,40.86
2023-04-22T10:08:40.506Z,39.93
2023-04-22T10:11:43.147Z,39.06
2023-04-22T10:14:46.637Z,38.45
2023-04-22T10:17:51.512Z,39.32
2023-04-22T10:20:58.230Z,39.28
2023-04-22T10:24:01.539Z,37.87
2023-04-22T10:27:06.576Z,38.04
2023-04-22T10:30:11.522Z,37.72
2023-04-22T10:33:39.849Z,37.13
2023-04-22T10:37:03.050Z,38.47
2023-04-22T10:40:11.970Z,36.85
2023-04-22T10:43:14.771Z,37.65
2023-04-22T10:47:06.348Z,38.62
2023-04-22T10:50:14.269Z,35.40
2023-04-22T10:53:37.234Z,34.83
2023-04-22T10:57:04.181Z,35.89
2023-04-22T11:00:25.101Z,34.46
2023-04-22T11:03:30.309Z,34.29
2023-04-22T11:06:33.189Z,34.31
2023-04-22T11:09:41.373Z,33.86
2023-04-22T11:12:44.765Z,34.56
2023-04-22T11:15:48.908Z,33.76
2023-04-22T11:18:51.791Z,33.23
2023-04-22T11:21:54.497Z,32.94
2023-04-22T11:24:59.543Z,35.49
2023-04-22T11:28:02.475Z,33.26
2023-04-22T11:31:07.317Z,32.10
2023-04-22T11:34:10.391Z,35.41
2023-04-22T11:37:13.197Z,31.40
2023-04-22T11:43:25.155Z,33.16
2023-04-22T11:46:31.846Z,33.89
2023-04-22T11:49:34.521Z,32.40
2023-04-22T11:52:45.530Z,32.95
2023-04-22T11:55:52.816Z,31.33
2023-04-22T11:58:55.493Z,32.92
2023-04-22T12:01:58.126Z,32.60
2023-04-22T12:05:00.996Z,30.41
2023-04-22T12:08:05.289Z,31.08
2023-04-22T12:11:10.923Z,32.54
2023-04-22T12:14:13.574Z,31.54
2023-04-22T12:17:16.496Z,32.00
2023-04-22T12:20:19.591Z,31.54
2023-04-22T12:23:22.254Z,32.34
2023-04-22T12:26:28.195Z,31.70
2023-04-22T12:29:33.184Z,30.41
2023-04-22T12:32:35.816Z,30.03
2023-04-22T12:35:38.488Z,30.26
2023-04-22T12:38:41.388Z,31.04
2023-04-22T12:41:45.923Z,30.08
2023-04-22T12:44:48.564Z,32.16
2023-04-22T12:47:53.492Z,31.73
2023-04-22T12:50:57.288Z,29.94
2023-04-22T12:53:59.887Z,30.22
2023-04-22T12:57:03.859Z,29.22
2023-04-22T13:00:14.067Z,29.92
2023-04-22T13:03:16.826Z,29.69
2023-04-22T13:06:19.585Z,30.32
2023-04-22T13:09:22.193Z,29.86
2023-04-22T13:12:26.189Z,30.17
2023-04-22T13:15:30.057Z,32.96
2023-04-22T13:18:32.779Z,31.78
2023-04-22T13:21:35.675Z,32.58
2023-04-22T13:24:38.322Z,30.76
2023-04-22T13:27:42.781Z,31.95
2023-04-22T13:30:45.419Z,30.74
2023-04-22T13:33:48.029Z,30.88
2023-04-22T13:36:50.844Z,31.82
2023-04-22T13:39:53.545Z,32.73
2023-04-22T13:42:57.478Z,33.43
2023-04-22T13:46:00.242Z,33.36
2023-04-22T13:49:02.831Z,32.29
2023-04-22T13:52:05.622Z,33.16
2023-04-22T13:55:09.624Z,32.08
2023-04-22T13:58:13.605Z,33.51
2023-04-22T14:01:16.317Z,33.48
2023-04-22T14:04:19.082Z,33.50
2023-04-22T14:07:21.730Z,35.11
2023-04-22T14:10:25.548Z,34.70
2023-04-22T14:13:31.775Z,34.01
2023-04-22T14:16:34.485Z,33.13
2023-04-22T14:19:38.900Z,33.90
2023-04-22T14:22:41.712Z,33.76
2023-04-22T14:25:44.617Z,34.10
2023-04-22T14:28:48.555Z,33.79
2023-04-22T14:31:51.149Z,34.07
2023-04-22T14:34:53.800Z,34.60
2023-04-22T14:37:56.378Z,35.75
2023-04-22T14:40:59.392Z,36.06
2023-04-22T14:44:03.353Z,35.68
2023-04-22T14:47:06.238Z,36.86
2023-04-22T14:50:09.270Z,36.55
2023-04-22T14:53:11.949Z,35.92
2023-04-22T14:56:14.576Z,37.19
2023-04-22T14:59:18.516Z,35.50
2023-04-22T15:02:21.248Z,36.58
2023-04-22T15:05:24.127Z,36.63
2023-04-22T15:08:26.888Z,37.18
2023-04-22T15:11:29.476Z,38.67
2023-04-22T15:14:35.457Z,38.69
2023-04-22T15:17:38.090Z,38.75
2023-04-22T15:20:41.242Z,39.64
2023-04-22T15:23:43.821Z,40.23
2023-04-22T15:26:46.671Z,38.46
2023-04-22T15:29:50.787Z,39.98
2023-04-22T15:32:53.478Z,39.66
2023-04-22T15:35:56.157Z,39.77
2023-04-22T15:38:59.209Z,41.35
2023-04-22T15:42:02.723Z,40.30
2023-04-22T15:45:08.023Z,40.62
2023-04-22T15:48:10.857Z,38.14
2023-04-22T15:51:13.590Z,38.69
2023-04-22T15:54:16.184Z,39.15
2023-04-22T15:57:18.772Z,37.82
2023-04-22T16:00:22.750Z,38.64
2023-04-22T16:03:25.768Z,38.91
2023-04-22T16:06:28.491Z,39.30
2023-04-22T16:09:31.050Z,39.44
2023-04-22T16:12:34.549Z,39.72
2023-04-22T16:15:38.797Z,40.92
2023-04-22T16:18:44.068Z,39.21
2023-04-22T16:21:47.147Z,41.67
2023-04-22T16:24:49.835Z,39.52
2023-04-22T16:27:52.447Z,39.34
2023-04-22T16:30:56.486Z,39.85
2023-04-22T16:33:59.523Z,41.38
2023-04-22T16:37:02.144Z,40.97
2023-04-22T16:40:06.132Z,40.72
2023-04-22T16:43:09.262Z,40.80
2023-04-22T16:46:13.836Z,42.60
2023-04-22T16:49:16.470Z,41.68
2023-04-22T16:52:19.127Z,42.06
2023-04-22T16:55:21.774Z,40.89
2023-04-22T16:58:24.475Z,41.91
2023-04-22T17:01:29.921Z,42.43
2023-04-22T17:04:32.706Z,43.00
2023-04-22T17:07:35.551Z,41.84
2023-04-22T17:10:41.422Z,41.98
2023-04-22T17:13:43.996Z,43.27
2023-04-22T17:16:47.963Z,43.28
2023-04-22T17:19:50.553Z,43.41
2023-04-22T17:22:53.210Z,42.38
2023-04-22T17:25:55.814Z,42.67
2023-04-22T17:28:58.417Z,42.90
2023-04-22T17:32:02.708Z,43.79
2023-04-22T17:35:05.840Z,45.43
2023-04-22T17:38:08.453Z,43.45
2023-04-22T17:41:11.152Z,43.87
2023-04-22T17:44:13.762Z,43.93
2023-04-22T17:47:17.760Z,44.45
2023-04-22T17:50:20.704Z,44.81
2023-04-22T17:53:23.303Z,45.48
2023-04-22T17:56:26.074Z,44.37
2023-04-22T17:59:28.669Z,44.30
2023-04-22T18:02:32.698Z,44.21
2023-04-22T18:05:35.328Z,43.67
2023-04-22T18:08:38.015Z,45.58
2023-04-22T18:11:40.695Z,46.13
2023-04-22T18:14:43.446Z,46.79
2023-04-22T18:17:47.404Z,44.92
2023-04-22T18:20:50.299Z,44.65
2023-04-22T18:23:53.693Z,45.55
2023-04-22T18:26:56.380Z,44.80
2023-04-22T18:29:58.989Z,45.34
2023-04-22T18:33:04.585Z,44.81
2023-04-22T18:36:07.728Z,46.28
2023-04-22T18:39:10.772Z,45.27
2023-04-22T18:42:13.898Z,45.71
2023-04-22T18:45:16.769Z,45.96
2023-04-22T18:48:22.323Z,45.10
2023-04-22T18:51:24.964Z,46.04
2023-04-22T18:54:30.689Z,45.52
2023-04-22T18:57:33.646Z,45.88
2023-04-22T19:00:36.393Z,45.69
2023-04-22T19:03:40.993Z,45.61
2023-04-22T19:06:43.675Z,46.62
2023-04-22T19:09:46.626Z,47.14
2023-04-22T19:12:49.254Z,46.26
2023-04-22T19:15:51.873Z,47.04
2023-04-22T19:18:56.108Z,46.70
2023-04-22T19:21:58.734Z,46.71
2023-04-22T19:25:05.903Z,47.74
2023-04-22T19:28:08.525Z,46.99
2023-04-22T19:31:11.461Z,47.89
2023-04-22T19:34:15.623Z,46.70
2023-04-22T19:37:18.453Z,47.17
2023-04-22T19:40:21.302Z,47.31
2023-04-22T19:43:23.977Z,47.77
2023-04-22T19:46:26.710Z,46.84
2023-04-22T19:49:32.835Z,47.49
2023-04-22T19:52:36.045Z,47.72
2023-04-22T19:55:39.542Z,47.67
2023-04-22T19:58:43.210Z,48.22
2023-04-22T20:01:46.309Z,48.39
2023-04-22T20:04:50.727Z,48.60
2023-04-22T20:07:53.993Z,48.27
2023-04-22T20:10:56.946Z,49.43
2023-04-22T20:14:00.318Z,49.26
2023-04-22T20:17:03.724Z,49.07
2023-04-22T20:20:13.051Z,49.85
2023-04-22T20:23:16.384Z,48.75
2023-04-22T20:26:19.737Z,48.64
2023-04-22T20:29:23.068Z,48.97
2023-04-22T20:32:26.324Z,50.04
2023-04-22T20:35:31.906Z,50.50
2023-04-22T20:38:36.901Z,50.70
2023-04-22T20:41:40.408Z,52.42
2023-04-22T20:44:43.231Z,52.82
2023-04-22T20:47:46.139Z,53.63
2023-04-22T20:50:50.470Z,54.53
2023-04-22T20:53:53.205Z,55.37
2023-04-22T20:56:55.798Z,55.86
2023-04-22T20:59:58.422Z,56.86
2023-04-22T21:03:01.357Z,57.92
2023-04-22T21:06:06.800Z,58.58
2023-04-22T21:09:10.483Z,60.32
2023-04-22T21:12:14.855Z,61.97
2023-04-22T21:15:18.226Z,62.67
2023-04-22T21:18:23.416Z,63.80
2023-04-22T21:21:31.870Z,65.12
2023-04-22T21:24:35.918Z,66.53
2023-04-22T21:27:39.226Z,66.95
2023-04-22T21:30:42.705Z,68.43
2023-04-22T21:33:45.283Z,68.65
2023-04-22T21:36:49.266Z,70.04
2023-04-22T21:39:51.889Z,70.64
2023-04-22T21:42:54.480Z,71.92
2023-04-22T21:45:57.096Z,72.64
2023-04-22T21:48:59.835Z,72.98
2023-04-22T21:52:03.880Z,73.08
2023-04-22T21:55:07.432Z,72.56
2023-04-22T21:58:10.019Z,73.74
2023-04-22T22:01:12.723Z,75.12
2023-04-22T22:04:16.384Z,75.19
2023-04-22T22:07:21.280Z,76.06
2023-04-22T22:10:24.467Z,76.79
2023-04-22T22:13:27.180Z,76.82
2023-04-22T22:16:30.867Z,77.08
2023-04-22T22:19:33.954Z,77.29
2023-04-22T22:22:38.112Z,77.34
2023-04-22T22:25:40.711Z,78.77
2023-04-22T22:28:43.317Z,79.95
2023-04-22T22:31:46.989Z,81.82
2023-04-22T22:34:49.575Z,83.08
2023-04-22T22:37:53.589Z,84.12
2023-04-22T22:40:56.185Z,85.90
2023-04-22T22:43:58.804Z,87.10
2023-04-22T22:47:01.725Z,90.28
2023-04-22T22:50:04.729Z,89.90
2023-04-22T22:53:08.667Z,91.70
2023-04-22T22:56:11.260Z,93.42
2023-04-22T22:59:13.857Z,94.55
2023-04-22T23:02:16.614Z,95.01
2023-04-22T23:05:19.388Z,96.23
2023-04-22T23:08:23.384Z,97.22
2023-04-22T23:11:26.121Z,98.05
2023-04-22T23:14:28.735Z,99.05
2023-04-22T23:17:31.418Z,98.98
2023-04-22T23:20:34.730Z,100.00
2023-04-22T23:23:39.102Z,100.00
2023-04-22T23:26:42.160Z,99.39
2023-04-22T23:29:45.264Z,100.00
2023-04-22T23:32:49.105Z,99.68
2023-04-22T23:35:53.525Z,99.53
2023-04-22T23:38:58.092Z,99.68
2023-04-22T23:42:01.099Z,100.00
2023-04-22T23:45:03.848Z,100.00
2023-04-22T23:48:06.534Z,99.88
2023-04-22T23:51:09.226Z,99.66
2023-04-22T23:54:13.162Z,99.72
2023-04-22T23:57:16.556Z,100.00
